createdAt,value
2019-05-04T00:02:31.414Z,7.40
2019-05-04T00:05:04.582Z,7.30
2019-05-04T00:07:32.269Z,7.20
2019-05-04T00:09:59.421Z,7.20
2019-05-04T00:12:26.828Z,6.90
2019-05-04T00:14:57.741Z,6.60
2019-05-04T00:17:25.194Z,6.30
2019-05-04T00:19:54.718Z,6.00
2019-05-04T00:22:21.926Z,5.80
2019-05-04T00:24:49.707Z,5.60
2019-05-04T00:27:16.875Z,5.30
2019-05-04T00:29:44.610Z,5.10
2019-05-04T00:32:15.491Z,5.10
2019-05-04T00:35:04.601Z,5.00
2019-05-04T00:37:31.598Z,4.90
2019-05-04T00:39:59.297Z,5.00
2019-05-04T00:42:26.685Z,4.90
2019-05-04T00:44:55.161Z,4.80
2019-05-04T00:47:22.460Z,4.70
2019-05-04T00:49:51.722Z,4.80
2019-05-04T00:52:19.360Z,4.80
2019-05-04T00:54:46.425Z,4.80
2019-05-04T00:57:15.316Z,4.70
2019-05-04T00:59:45.025Z,4.80
2019-05-04T01:02:29.321Z,4.80
2019-05-04T01:04:57.693Z,4.60
2019-05-04T01:07:25.808Z,4.40
2019-05-04T01:09:55.195Z,4.30
2019-05-04T01:12:25.139Z,4.30
2019-05-04T01:14:55.110Z,4.30
2019-05-04T01:17:24.879Z,4.30
2019-05-04T01:19:54.953Z,4.50
2019-05-04T01:22:22.718Z,4.50
2019-05-04T01:24:51.333Z,4.30
2019-05-04T01:27:19.720Z,4.30
2019-05-04T01:29:47.981Z,4.50
2019-05-04T01:32:16.236Z,4.60
2019-05-04T01:35:05.274Z,4.70
2019-05-04T01:37:51.772Z,4.60
2019-05-04T01:40:41.585Z,4.40
2019-05-04T01:43:09.038Z,4.50
2019-05-04T01:45:36.443Z,4.50
2019-05-04T01:48:04.806Z,4.60
2019-05-04T01:50:34.953Z,4.50
2019-05-04T01:53:07.318Z,4.50
2019-05-04T01:56:09.790Z,4.50
2019-05-04T01:58:39.586Z,4.70
2019-05-04T02:01:06.597Z,4.80
2019-05-04T02:03:34.368Z,4.60
2019-05-04T02:06:12.084Z,4.60
2019-05-04T02:08:54.675Z,4.60
2019-05-04T02:11:21.758Z,4.70
2019-05-04T02:13:48.998Z,4.60
2019-05-04T02:16:16.502Z,4.50
2019-05-04T02:18:45.640Z,4.40
2019-05-04T02:21:14.789Z,4.40
2019-05-04T02:23:41.317Z,4.50
2019-05-04T02:26:15.188Z,4.50
2019-05-04T02:28:58.979Z,4.80
2019-05-04T02:31:26.910Z,4.80
2019-05-04T02:33:56.190Z,4.90
2019-05-04T02:36:26.133Z,5.20
2019-05-04T02:38:55.746Z,5.20
2019-05-04T02:41:36.502Z,5.10
2019-05-04T02:44:06.125Z,4.90
2019-05-04T02:46:36.044Z,5.30
2019-05-04T02:49:26.645Z,5.40
2019-05-04T02:51:56.347Z,5.50
2019-05-04T02:54:28.534Z,5.40
2019-05-04T02:56:57.149Z,5.40
2019-05-04T02:59:25.656Z,5.30
2019-05-04T03:01:55.327Z,5.20
2019-05-04T03:04:23.853Z,5.30
2019-05-04T03:06:56.257Z,5.30
2019-05-04T03:09:25.464Z,5.20
2019-05-04T03:11:55.921Z,5.20
2019-05-04T03:14:26.843Z,5.10
2019-05-04T03:16:57.621Z,4.90
2019-05-04T03:19:39.738Z,4.80
2019-05-04T03:22:40.081Z,4.60
2019-05-04T03:25:07.281Z,4.50
2019-05-04T03:27:35.783Z,4.30
2019-05-04T03:30:07.233Z,4.30
2019-05-04T03:32:37.814Z,4.20
2019-05-04T03:35:24.411Z,4.20
2019-05-04T03:37:36.998Z,4.20
2019-05-04T03:40:05.947Z,4.30
2019-05-04T03:42:35.352Z,4.30
2019-05-04T03:45:08.392Z,4.30
2019-05-04T03:47:50.619Z,4.20
2019-05-04T03:50:41.666Z,4.20
2019-05-04T03:53:09.266Z,4.20
2019-05-04T03:55:37.103Z,4.20
2019-05-04T03:58:07.480Z,4.30
2019-05-04T04:00:36.427Z,4.30
2019-05-04T04:03:31.577Z,4.40
2019-05-04T04:05:59.414Z,4.50
2019-05-04T04:08:26.334Z,4.50
2019-05-04T04:10:56.211Z,4.40
2019-05-04T04:13:22.361Z,4.60
2019-05-04T04:15:51.257Z,4.60
2019-05-04T04:18:24.998Z,4.60
2019-05-04T04:20:55.883Z,4.70
2019-05-04T04:23:55.859Z,4.90
2019-05-04T04:26:56.079Z,4.80
2019-05-04T04:29:41.260Z,4.70
2019-05-04T04:32:08.962Z,4.70
2019-05-04T04:34:37.545Z,4.70
2019-05-04T04:37:07.762Z,4.80
2019-05-04T04:39:39.653Z,4.70
2019-05-04T04:42:06.425Z,4.80
2019-05-04T04:44:36.067Z,4.80
2019-05-04T04:47:06.306Z,4.80
2019-05-04T04:49:36.738Z,4.90
2019-05-04T04:52:06.571Z,5.10
2019-05-04T04:54:35.181Z,4.90
2019-05-04T04:57:10.137Z,4.90
2019-05-04T04:59:59.609Z,5.00
2019-05-04T05:02:42.057Z,5.10
2019-05-04T05:04:57.366Z,5.20
2019-05-04T05:07:25.614Z,5.20
2019-05-04T05:09:55.495Z,5.20
2019-05-04T05:12:25.598Z,5.20
2019-05-04T05:14:54.956Z,5.30
2019-05-04T05:17:24.132Z,5.10
2019-05-04T05:19:54.374Z,5.20
2019-05-04T05:22:24.671Z,5.30
2019-05-04T05:24:54.858Z,5.30
2019-05-04T05:27:25.198Z,5.30
2019-05-04T05:29:55.204Z,5.30
2019-05-04T05:32:34.463Z,5.40
2019-05-04T05:35:11.801Z,5.50
2019-05-04T05:37:39.705Z,5.40
2019-05-04T05:40:07.825Z,5.40
2019-05-04T05:42:39.450Z,5.60
2019-05-04T05:45:10.060Z,5.60
2019-05-04T05:47:58.329Z,5.70
2019-05-04T05:50:41.005Z,5.80
2019-05-04T05:53:24.263Z,5.80
2019-05-04T05:56:04.834Z,5.70
2019-05-04T05:59:10.857Z,5.70
2019-05-04T06:02:15.868Z,5.80
2019-05-04T06:05:17.309Z,5.60
2019-05-04T06:07:59.715Z,5.60
2019-05-04T06:10:32.538Z,5.80
2019-05-04T06:13:21.097Z,5.80
2019-05-04T06:16:09.398Z,6.10
2019-05-04T06:18:40.999Z,6.20
2019-05-04T06:21:39.286Z,6.30
2019-05-04T06:24:20.424Z,6.40
2019-05-04T06:26:54.444Z,6.30
2019-05-04T06:29:30.993Z,6.30
2019-05-04T06:32:14.237Z,6.30
2019-05-04T06:35:07.146Z,6.40
2019-05-04T06:38:09.974Z,6.20
2019-05-04T06:40:39.450Z,6.00
2019-05-04T06:43:19.302Z,6.30
2019-05-04T06:46:08.828Z,6.40
2019-05-04T06:48:39.103Z,6.40
2019-05-04T06:51:11.701Z,6.50
2019-05-04T06:53:52.583Z,6.80
2019-05-04T06:56:33.402Z,7.30
2019-05-04T06:59:03.193Z,8.10
2019-05-04T07:01:34.550Z,8.30
2019-05-04T07:04:08.470Z,8.60
2019-05-04T07:06:39.356Z,8.80
2019-05-04T07:09:08.029Z,9.10
2019-05-04T07:11:39.644Z,10.40
2019-05-04T07:14:08.077Z,10.20
2019-05-04T07:16:38.945Z,10.30
2019-05-04T07:19:10.550Z,11.80
2019-05-04T07:21:38.101Z,12.50
2019-05-04T07:24:08.345Z,12.10
2019-05-04T07:26:39.630Z,12.20
2019-05-04T07:29:10.145Z,12.40
2019-05-04T07:31:40.533Z,12.00
2019-05-04T07:34:08.864Z,12.00
2019-05-04T07:37:11.673Z,12.10
2019-05-04T07:40:04.650Z,12.00
2019-05-04T07:42:51.688Z,12.50
2019-05-04T07:45:20.010Z,12.20
2019-05-04T07:47:48.298Z,11.30
2019-05-04T07:50:15.855Z,11.30
2019-05-04T07:52:44.559Z,10.40
2019-05-04T07:55:12.201Z,10.30
2019-05-04T07:57:39.303Z,10.20
2019-05-04T08:00:10.245Z,10.10
2019-05-04T08:02:39.489Z,9.90
2019-05-04T08:05:08.422Z,9.50
2019-05-04T08:07:36.236Z,9.30
2019-05-04T08:10:09.929Z,9.40
2019-05-04T08:12:49.775Z,9.30
2019-05-04T08:15:14.097Z,9.50
2019-05-04T08:17:45.103Z,9.50
2019-05-04T08:20:20.712Z,9.10
2019-05-04T08:22:59.045Z,9.20
2019-05-04T08:25:21.609Z,9.20
2019-05-04T08:27:54.705Z,8.70
2019-05-04T08:30:25.047Z,8.90
2019-05-04T08:32:54.950Z,9.50
2019-05-04T08:35:29.035Z,9.30
2019-05-04T08:37:55.480Z,9.60
2019-05-04T08:40:24.881Z,10.10
2019-05-04T08:42:54.853Z,10.60
2019-05-04T08:45:29.221Z,11.00
2019-05-04T08:48:01.036Z,11.20
2019-05-04T08:50:33.211Z,10.80
2019-05-04T08:53:02.329Z,10.50
2019-05-04T08:55:39.583Z,10.30
2019-05-04T08:58:14.795Z,9.80
2019-05-04T09:00:45.206Z,9.40
2019-05-04T09:03:26.235Z,9.50
2019-05-04T09:06:11.159Z,9.30
2019-05-04T09:08:25.268Z,9.90
2019-05-04T09:11:06.297Z,10.80
2019-05-04T09:13:26.378Z,10.80
2019-05-04T09:15:59.389Z,10.60
2019-05-04T09:18:29.244Z,10.60
2019-05-04T09:20:55.313Z,10.10
2019-05-04T09:23:32.447Z,10.00
2019-05-04T09:26:02.229Z,9.80
2019-05-04T09:28:30.161Z,9.70
2019-05-04T09:31:01.864Z,9.70
2019-05-04T09:33:32.294Z,10.20
2019-05-04T09:36:04.789Z,10.40
2019-05-04T09:38:32.611Z,11.20
2019-05-04T09:41:04.826Z,11.90
2019-05-04T09:43:41.159Z,12.80
2019-05-04T09:46:10.563Z,13.10
2019-05-04T09:48:39.815Z,12.80
2019-05-04T09:51:17.838Z,12.60
2019-05-04T09:53:44.169Z,11.90
2019-05-04T09:56:15.927Z,11.20
2019-05-04T09:58:45.029Z,10.70
2019-05-04T10:01:13.209Z,10.50
2019-05-04T10:03:45.062Z,11.10
2019-05-04T10:06:13.392Z,12.00
2019-05-04T10:08:41.557Z,12.40
2019-05-04T10:11:21.664Z,12.20
2019-05-04T10:13:56.696Z,11.60
2019-05-04T10:16:44.654Z,10.90
2019-05-04T10:19:17.453Z,11.10
2019-05-04T10:21:46.129Z,11.80
2019-05-04T10:24:18.479Z,12.50
2019-05-04T10:26:52.461Z,12.70
2019-05-04T10:29:20.832Z,12.50
2019-05-04T10:31:50.985Z,12.60
2019-05-04T10:34:19.117Z,12.40
2019-05-04T10:36:47.525Z,12.10
2019-05-04T10:39:15.699Z,11.70
2019-05-04T10:41:45.272Z,11.60
2019-05-04T10:44:15.657Z,11.50
2019-05-04T10:46:44.159Z,11.40
2019-05-04T10:49:14.606Z,11.20
2019-05-04T10:51:44.758Z,11.10
2019-05-04T10:54:14.911Z,11.70
2019-05-04T10:56:45.061Z,12.30
2019-05-04T10:59:15.244Z,12.60
2019-05-04T11:01:50.414Z,13.00
2019-05-04T11:04:15.230Z,13.40
2019-05-04T11:06:44.626Z,13.40
2019-05-04T11:09:16.669Z,13.10
2019-05-04T11:11:45.041Z,13.40
2019-05-04T11:14:15.049Z,13.70
2019-05-04T11:16:44.847Z,13.80
2019-05-04T11:19:15.236Z,14.20
2019-05-04T11:21:44.249Z,14.60
2019-05-04T11:24:14.245Z,14.90
2019-05-04T11:26:47.237Z,14.40
2019-05-04T11:29:15.661Z,14.70
2019-05-04T11:31:45.295Z,14.20
2019-05-04T11:34:14.280Z,13.40
2019-05-04T11:36:44.573Z,13.00
2019-05-04T11:39:12.710Z,12.40
2019-05-04T11:41:40.625Z,11.00
2019-05-04T11:44:08.620Z,10.00
2019-05-04T11:46:36.530Z,9.30
2019-05-04T11:49:04.756Z,8.90
2019-05-04T11:51:34.786Z,8.50
2019-05-04T11:54:06.239Z,8.20
2019-05-04T11:56:35.000Z,8.00
2019-05-04T11:59:05.205Z,8.40
2019-05-04T12:01:34.433Z,9.00
2019-05-04T12:04:07.165Z,9.70
2019-05-04T12:06:52.240Z,10.40
2019-05-04T12:09:42.756Z,11.00
2019-05-04T12:12:14.892Z,11.50
2019-05-04T12:14:44.325Z,11.90
2019-05-04T12:17:12.485Z,12.30
2019-05-04T12:19:40.389Z,12.10
2019-05-04T12:22:08.840Z,12.00
2019-05-04T12:24:36.736Z,12.20
2019-05-04T12:27:05.011Z,12.70
2019-05-04T12:29:34.760Z,12.50
2019-05-04T12:32:05.276Z,12.30
2019-05-04T12:34:34.254Z,12.10
2019-05-04T12:37:02.680Z,11.80
2019-05-04T12:39:31.842Z,11.70
2019-05-04T12:41:59.878Z,12.10
2019-05-04T12:44:27.780Z,12.10
2019-05-04T12:46:56.277Z,12.40
2019-05-04T12:49:28.883Z,12.80
2019-05-04T12:51:56.778Z,12.70
2019-05-04T12:54:25.071Z,12.40
2019-05-04T12:56:55.152Z,11.80
2019-05-04T12:59:23.279Z,10.90
2019-05-04T13:01:51.180Z,10.10
2019-05-04T13:04:19.177Z,9.30
2019-05-04T13:06:47.437Z,8.90
2019-05-04T13:09:15.444Z,8.50
2019-05-04T13:11:44.369Z,8.40
2019-05-04T13:14:15.924Z,8.50
2019-05-04T13:16:44.138Z,8.90
2019-05-04T13:19:12.685Z,9.40
2019-05-04T13:21:40.985Z,9.50
2019-05-04T13:24:09.098Z,9.70
2019-05-04T13:26:37.010Z,10.10
2019-05-04T13:29:06.373Z,10.30
2019-05-04T13:31:35.308Z,10.70
2019-05-04T13:34:08.487Z,11.10
2019-05-04T13:36:35.355Z,11.30
2019-05-04T13:39:05.227Z,11.10
2019-05-04T13:41:34.491Z,11.30
2019-05-04T13:44:04.762Z,11.60
2019-05-04T13:46:34.966Z,11.80
2019-05-04T13:49:04.582Z,11.70
2019-05-04T13:51:34.849Z,11.60
2019-05-04T13:54:07.114Z,11.60
2019-05-04T13:56:55.153Z,11.40
2019-05-04T13:59:42.844Z,11.30
2019-05-04T14:02:24.210Z,10.20
2019-05-04T14:04:55.245Z,8.00
2019-05-04T14:07:23.310Z,6.50
2019-05-04T14:09:51.552Z,5.60
2019-05-04T14:12:19.468Z,5.40
2019-05-04T14:14:48.545Z,5.00
2019-05-04T14:17:17.117Z,5.00
2019-05-04T14:19:45.721Z,5.20
2019-05-04T14:22:15.045Z,5.20
2019-05-04T14:24:44.798Z,5.20
2019-05-04T14:27:14.851Z,5.50
2019-05-04T14:29:43.230Z,5.40
2019-05-04T14:32:14.480Z,5.50
2019-05-04T14:34:42.817Z,5.60
2019-05-04T14:37:12.660Z,5.80
2019-05-04T14:39:56.349Z,5.90
2019-05-04T14:42:25.113Z,5.80
2019-05-04T14:45:14.892Z,5.90
2019-05-04T14:47:50.373Z,6.20
2019-05-04T14:50:18.387Z,6.80
2019-05-04T14:52:46.276Z,7.30
2019-05-04T14:55:15.517Z,7.60
2019-05-04T14:57:44.078Z,7.80
2019-05-04T15:00:15.629Z,8.20
2019-05-04T15:02:45.154Z,8.40
2019-05-04T15:05:13.780Z,8.60
2019-05-04T15:07:49.048Z,8.60
2019-05-04T15:10:16.925Z,8.80
2019-05-04T15:12:45.071Z,8.70
2019-05-04T15:15:14.390Z,8.40
2019-05-04T15:17:44.887Z,8.10
2019-05-04T15:20:25.540Z,7.90
2019-05-04T15:22:52.893Z,7.70
2019-05-04T15:25:21.194Z,7.60
2019-05-04T15:27:56.531Z,7.40
2019-05-04T15:30:24.848Z,7.40
2019-05-04T15:32:53.079Z,7.30
2019-05-04T15:35:21.118Z,7.30
2019-05-04T15:37:49.150Z,7.40
2019-05-04T15:40:21.286Z,7.70
2019-05-04T15:42:49.186Z,7.70
2019-05-04T15:45:29.470Z,8.20
2019-05-04T15:48:04.542Z,8.40
2019-05-04T15:50:36.800Z,8.30
2019-05-04T15:53:11.200Z,8.20
2019-05-04T15:56:01.379Z,8.00
2019-05-04T15:58:45.611Z,7.80
2019-05-04T16:01:14.383Z,7.40
2019-05-04T16:03:42.448Z,7.40
2019-05-04T16:06:10.498Z,7.30
2019-05-04T16:08:44.975Z,7.40
2019-05-04T16:11:14.960Z,7.50
2019-05-04T16:13:45.093Z,7.50
2019-05-04T16:16:17.894Z,7.50
2019-05-04T16:18:46.650Z,7.60
2019-05-04T16:21:15.542Z,7.90
2019-05-04T16:23:44.339Z,8.00
2019-05-04T16:26:12.589Z,8.20
2019-05-04T16:28:41.020Z,8.20
2019-05-04T16:31:09.236Z,8.30
2019-05-04T16:33:37.261Z,8.50
2019-05-04T16:36:05.295Z,8.60
2019-05-04T16:38:34.233Z,8.70
2019-05-04T16:41:02.329Z,8.70
2019-05-04T16:43:30.252Z,8.50
2019-05-04T16:45:58.823Z,8.20
2019-05-04T16:48:27.376Z,8.00
2019-05-04T16:51:34.839Z,8.00
2019-05-04T16:54:02.422Z,8.00
2019-05-04T16:56:34.784Z,8.00
2019-05-04T16:59:04.049Z,8.00
2019-05-04T17:02:00.638Z,7.90
2019-05-04T17:04:51.830Z,7.80
2019-05-04T17:07:18.684Z,7.50
2019-05-04T17:09:46.281Z,7.40
2019-05-04T17:12:15.061Z,7.20
2019-05-04T17:14:45.899Z,7.10
2019-05-04T17:17:15.241Z,7.20
2019-05-04T17:19:42.383Z,7.30
2019-05-04T17:22:10.399Z,7.10
2019-05-04T17:24:44.540Z,7.00
2019-05-04T17:27:13.420Z,6.80
2019-05-04T17:29:44.396Z,6.70
2019-05-04T17:32:12.069Z,6.60
2019-05-04T17:34:41.873Z,6.60
2019-05-04T17:37:10.232Z,6.70
2019-05-04T17:39:39.076Z,6.70
2019-05-04T17:42:19.728Z,6.70
2019-05-04T17:44:54.330Z,6.80
2019-05-04T17:47:21.741Z,6.80
2019-05-04T17:49:52.151Z,7.00
2019-05-04T17:52:20.297Z,6.90
2019-05-04T17:54:48.718Z,7.00
2019-05-04T17:57:16.905Z,7.00
2019-05-04T18:00:04.951Z,6.90
2019-05-04T18:02:36.365Z,7.10
2019-05-04T18:05:05.395Z,7.30
2019-05-04T18:07:38.225Z,7.40
2019-05-04T18:10:06.601Z,7.10
2019-05-04T18:12:56.814Z,7.20
2019-05-04T18:15:41.250Z,7.30
2019-05-04T18:18:12.542Z,7.20
2019-05-04T18:20:40.521Z,7.20
2019-05-04T18:23:09.632Z,6.90
2019-05-04T18:25:37.829Z,6.80
2019-05-04T18:28:06.050Z,6.80
2019-05-04T18:30:37.738Z,7.00
2019-05-04T18:33:06.108Z,6.90
2019-05-04T18:35:34.550Z,6.80
2019-05-04T18:38:08.225Z,6.80
2019-05-04T18:40:37.601Z,6.70
2019-05-04T18:43:05.833Z,6.80
2019-05-04T18:45:58.935Z,6.90
2019-05-04T18:48:37.579Z,7.10
2019-05-04T18:51:05.613Z,7.00
2019-05-04T18:53:34.985Z,6.80
2019-05-04T18:56:04.561Z,6.80
2019-05-04T18:58:34.506Z,6.90
2019-05-04T19:01:05.412Z,6.80
2019-05-04T19:03:33.178Z,6.80
2019-05-04T19:06:08.753Z,7.20
2019-05-04T19:08:38.810Z,7.10
2019-05-04T19:11:06.840Z,7.30
2019-05-04T19:13:35.249Z,7.30
2019-05-04T19:16:05.334Z,6.90
2019-05-04T19:18:33.584Z,6.80
2019-05-04T19:21:01.754Z,6.70
2019-05-04T19:23:31.805Z,6.70
2019-05-04T19:26:05.863Z,6.50
2019-05-04T19:28:32.918Z,6.70
2019-05-04T19:31:01.177Z,6.90
2019-05-04T19:33:29.341Z,6.90
2019-05-04T19:35:57.286Z,7.10
2019-05-04T19:38:25.313Z,7.30
2019-05-04T19:40:54.341Z,7.30
2019-05-04T19:43:31.349Z,7.40
2019-05-04T19:46:14.998Z,7.40
2019-05-04T19:48:51.541Z,7.30
2019-05-04T19:51:19.674Z,7.20
2019-05-04T19:53:47.920Z,7.20
2019-05-04T19:56:16.426Z,7.20
2019-05-04T19:58:45.276Z,7.30
2019-05-04T20:01:14.721Z,7.10
2019-05-04T20:03:44.433Z,7.00
2019-05-04T20:06:12.889Z,7.10
2019-05-04T20:08:54.908Z,7.10
2019-05-04T20:11:45.850Z,7.10
2019-05-04T20:14:15.050Z,7.20
2019-05-04T20:16:44.722Z,7.00
2019-05-04T20:19:13.028Z,6.70
2019-05-04T20:21:40.962Z,6.70
2019-05-04T20:24:08.981Z,6.70
2019-05-04T20:26:37.586Z,6.80
2019-05-04T20:29:05.706Z,6.60
2019-05-04T20:31:34.562Z,6.50
2019-05-04T20:34:04.980Z,6.50
2019-05-04T20:36:34.349Z,6.40
2019-05-04T20:39:06.263Z,6.40
2019-05-04T20:41:35.135Z,6.50
2019-05-04T20:44:27.769Z,6.50
2019-05-04T20:47:15.039Z,6.60
2019-05-04T20:49:44.773Z,6.50
2019-05-04T20:52:14.353Z,6.70
2019-05-04T20:54:41.695Z,6.70
2019-05-04T20:57:08.868Z,6.70
2019-05-04T20:59:36.395Z,6.70
2019-05-04T21:02:11.587Z,6.80
2019-05-04T21:04:54.289Z,6.80
2019-05-04T21:07:25.467Z,6.70
2019-05-04T21:09:51.690Z,6.60
2019-05-04T21:12:19.038Z,6.50
2019-05-04T21:14:46.430Z,6.70
2019-05-04T21:17:24.253Z,6.70
2019-05-04T21:20:01.106Z,6.70
2019-05-04T21:22:31.044Z,6.70
2019-05-04T21:24:59.434Z,6.80
2019-05-04T21:27:27.928Z,6.60
2019-05-04T21:29:56.361Z,6.70
2019-05-04T21:32:25.140Z,6.60
2019-05-04T21:34:54.616Z,6.60
2019-05-04T21:37:24.738Z,6.60
2019-05-04T21:39:52.972Z,6.70
2019-05-04T21:42:21.141Z,6.60
2019-05-04T21:44:58.390Z,6.60
2019-05-04T21:47:46.408Z,6.50
2019-05-04T21:50:37.094Z,6.50
2019-05-04T21:53:05.349Z,6.50
2019-05-04T21:55:33.641Z,6.50
2019-05-04T21:58:04.268Z,6.40
2019-05-04T22:01:10.009Z,6.40
2019-05-04T22:03:47.090Z,6.50
2019-05-04T22:06:14.539Z,6.50
2019-05-04T22:08:41.781Z,6.40
2019-05-04T22:11:09.007Z,6.30
2019-05-04T22:13:36.162Z,6.30
2019-05-04T22:16:05.186Z,6.30
2019-05-04T22:18:34.676Z,6.30
2019-05-04T22:21:01.627Z,6.20
2019-05-04T22:23:29.057Z,6.30
2019-05-04T22:25:56.689Z,6.30
2019-05-04T22:28:25.111Z,6.20
2019-05-04T22:30:53.240Z,6.20
2019-05-04T22:33:21.454Z,6.10
2019-05-04T22:35:49.828Z,6.10
2019-05-04T22:38:24.581Z,6.10
2019-05-04T22:40:56.276Z,6.00
2019-05-04T22:43:24.782Z,6.00
2019-05-04T22:45:54.716Z,5.90
2019-05-04T22:48:24.326Z,5.90
2019-05-04T22:50:54.867Z,5.80
2019-05-04T22:53:35.006Z,5.90
2019-05-04T22:56:08.762Z,5.80
2019-05-04T22:58:45.537Z,5.80
2019-05-04T23:01:30.507Z,5.70
2019-05-04T23:04:10.361Z,5.60
2019-05-04T23:06:39.022Z,5.60
2019-05-04T23:09:07.055Z,5.60
2019-05-04T23:11:36.308Z,5.60
2019-05-04T23:14:04.697Z,5.70
2019-05-04T23:16:33.101Z,5.50
2019-05-04T23:19:06.102Z,5.50
2019-05-04T23:21:36.625Z,5.60
2019-05-04T23:24:04.773Z,5.50
2019-05-04T23:26:34.784Z,5.50
2019-05-04T23:29:06.056Z,5.50
2019-05-04T23:31:34.778Z,5.50
2019-05-04T23:34:04.654Z,5.50
2019-05-04T23:36:34.675Z,5.30
2019-05-04T23:39:05.169Z,5.30
2019-05-04T23:41:35.353Z,5.30
2019-05-04T23:44:04.453Z,5.30
2019-05-04T23:46:45.870Z,5.20
2019-05-04T23:49:18.639Z,5.20
2019-05-04T23:51:44.904Z,5.20
2019-05-04T23:54:13.098Z,5.10
2019-05-04T23:56:41.887Z,5.10
2019-05-04T23:59:11.471Z,5.10
